< < Back
Terminal Aerodrome Forecast


Current Version              Previous Versions:   1  2  3  4  5  6  7  8  9  

Terminal Aerodrome Forecast

015
FTUS42 KFFC 271742
TAFCSG
TAF
KCSG 271742Z 2718/2818 28009KT P6SM BKN040
     FM280200 25005KT P6SM SCT250
     FM281500 25007KT P6SM SCT040=

Latest METAR

386
SAUS70 KWBC 272300 RRA
MTRCSG
METAR KCSG 272251Z 24009KT 10SM FEW060 SCT070 SCT085 33/19 A2999 RMK AO2
SLP151 T03280189


USA.gov is the U.S. government's official web portal to all federal, state and local government web resources and services.